sensor_id;sensor_type;location;lat;lon;timestamp;P1;P2;P0
46302;PMS7003;32029;51.358;5.628;2023-06-24T00:01:53;4.00;3.00;2.00
46302;PMS7003;32029;51.358;5.628;2023-06-24T00:04:20;2.00;1.00;0.80
46302;PMS7003;32029;51.358;5.628;2023-06-24T00:06:48;2.60;2.60;2.40
46302;PMS7003;32029;51.358;5.628;2023-06-24T00:09:15;2.67;2.67;1.33
46302;PMS7003;32029;51.358;5.628;2023-06-24T00:11:42;3.00;1.67;1.33
46302;PMS7003;32029;51.358;5.628;2023-06-24T00:14:09;7.00;3.20;1.20
46302;PMS7003;32029;51.358;5.628;2023-06-24T00:16:38;1.60;1.60;1.40
46302;PMS7003;32029;51.358;5.628;2023-06-24T00:19:06;4.60;3.60;2.40
46302;PMS7003;32029;51.358;5.628;2023-06-24T00:21:35;2.60;2.60;2.40
46302;PMS7003;32029;51.358;5.628;2023-06-24T00:24:04;4.00;4.00;3.50
46302;PMS7003;32029;51.358;5.628;2023-06-24T00:26:32;1.80;1.80;1.20
46302;PMS7003;32029;51.358;5.628;2023-06-24T00:29:00;2.80;2.80;2.20
46302;PMS7003;32029;51.358;5.628;2023-06-24T00:31:28;2.60;2.60;2.40
46302;PMS7003;32029;51.358;5.628;2023-06-24T00:33:55;1.00;1.00;0.67
46302;PMS7003;32029;51.358;5.628;2023-06-24T00:36:22;2.80;1.40;1.00
46302;PMS7003;32029;51.358;5.628;2023-06-24T00:38:49;3.00;3.00;2.33
46302;PMS7003;32029;51.358;5.628;2023-06-24T00:41:17;3.80;3.20;2.20
46302;PMS7003;32029;51.358;5.628;2023-06-24T00:43:45;4.00;2.00;1.33
46302;PMS7003;32029;51.358;5.628;2023-06-24T00:46:12;4.00;1.33;1.33
46302;PMS7003;32029;51.358;5.628;2023-06-24T00:48:41;8.80;3.40;2.20
46302;PMS7003;32029;51.358;5.628;2023-06-24T00:51:09;2.20;1.80;1.60
46302;PMS7003;32029;51.358;5.628;2023-06-24T00:53:37;5.00;2.20;2.20
46302;PMS7003;32029;51.358;5.628;2023-06-24T00:56:05;3.60;3.00;2.00
46302;PMS7003;32029;51.358;5.628;2023-06-24T00:58:34;1.20;1.00;0.60
46302;PMS7003;32029;51.358;5.628;2023-06-24T01:01:04;2.20;1.20;1.20
46302;PMS7003;32029;51.358;5.628;2023-06-24T01:03:36;3.60;1.40;1.00
46302;PMS7003;32029;51.358;5.628;2023-06-24T01:06:04;3.00;2.20;2.20
46302;PMS7003;32029;51.358;5.628;2023-06-24T01:08:32;4.00;3.00;2.20
46302;PMS7003;32029;51.358;5.628;2023-06-24T01:11:00;4.20;3.00;2.60
46302;PMS7003;32029;51.358;5.628;2023-06-24T01:13:27;3.67;3.33;2.67
46302;PMS7003;32029;51.358;5.628;2023-06-24T01:15:55;4.40;3.00;2.00
46302;PMS7003;32029;51.358;5.628;2023-06-24T01:18:33;3.00;2.67;2.00
46302;PMS7003;32029;51.358;5.628;2023-06-24T01:21:10;4.00;3.00;2.00
46302;PMS7003;32029;51.358;5.628;2023-06-24T01:24:00;3.00;1.40;1.00
46302;PMS7003;32029;51.358;5.628;2023-06-24T01:29:34;2.80;2.80;2.00
46302;PMS7003;32029;51.358;5.628;2023-06-24T01:35:02;2.00;2.00;1.00
46302;PMS7003;32029;51.358;5.628;2023-06-24T01:37:39;3.60;2.00;2.00
46302;PMS7003;32029;51.358;5.628;2023-06-24T01:40:11;3.40;3.00;2.00
46302;PMS7003;32029;51.358;5.628;2023-06-24T01:42:46;2.33;2.00;1.33
46302;PMS7003;32029;51.358;5.628;2023-06-24T01:45:16;3.00;2.00;1.00
46302;PMS7003;32029;51.358;5.628;2023-06-24T01:47:48;2.00;2.00;1.67
46302;PMS7003;32029;51.358;5.628;2023-06-24T01:50:20;0.67;0.67;0.67
46302;PMS7003;32029;51.358;5.628;2023-06-24T01:52:50;3.80;3.60;2.00
46302;PMS7003;32029;51.358;5.628;2023-06-24T01:55:20;6.40;4.00;3.20
46302;PMS7003;32029;51.358;5.628;2023-06-24T01:57:49;1.00;1.00;1.00
46302;PMS7003;32029;51.358;5.628;2023-06-24T02:00:19;4.00;2.00;1.40
46302;PMS7003;32029;51.358;5.628;2023-06-24T02:02:49;3.20;3.00;2.60
46302;PMS7003;32029;51.358;5.628;2023-06-24T02:05:18;2.80;2.80;2.20
46302;PMS7003;32029;51.358;5.628;2023-06-24T02:07:47;6.00;4.60;3.60
46302;PMS7003;32029;51.358;5.628;2023-06-24T02:10:17;6.20;4.60;2.80
46302;PMS7003;32029;51.358;5.628;2023-06-24T02:12:45;4.00;3.00;2.00
46302;PMS7003;32029;51.358;5.628;2023-06-24T02:15:16;2.00;2.00;2.00
46302;PMS7003;32029;51.358;5.628;2023-06-24T02:17:46;3.60;3.00;2.00
46302;PMS7003;32029;51.358;5.628;2023-06-24T02:20:16;4.00;2.60;2.00
46302;PMS7003;32029;51.358;5.628;2023-06-24T02:22:45;2.33;1.33;1.00
46302;PMS7003;32029;51.358;5.628;2023-06-24T02:25:13;3.40;2.40;2.00
46302;PMS7003;32029;51.358;5.628;2023-06-24T02:27:41;1.60;1.60;1.60
46302;PMS7003;32029;51.358;5.628;2023-06-24T02:30:09;2.00;2.00;1.00
46302;PMS7003;32029;51.358;5.628;2023-06-24T02:32:37;2.67;2.67;2.00
46302;PMS7003;32029;51.358;5.628;2023-06-24T02:35:04;3.00;2.33;2.33
46302;PMS7003;32029;51.358;5.628;2023-06-24T02:37:32;3.33;3.33;2.00
46302;PMS7003;32029;51.358;5.628;2023-06-24T02:40:00;3.00;3.00;2.20
46302;PMS7003;32029;51.358;5.628;2023-06-24T02:42:28;3.60;3.40;3.00
46302;PMS7003;32029;51.358;5.628;2023-06-24T02:44:55;3.67;3.67;2.00
46302;PMS7003;32029;51.358;5.628;2023-06-24T02:47:22;3.00;3.00;2.00
46302;PMS7003;32029;51.358;5.628;2023-06-24T02:49:50;3.00;1.67;1.33
46302;PMS7003;32029;51.358;5.628;2023-06-24T02:52:18;2.00;2.00;2.00
46302;PMS7003;32029;51.358;5.628;2023-06-24T02:54:44;1.67;0.00;0.00
46302;PMS7003;32029;51.358;5.628;2023-06-24T02:57:13;3.60;2.00;1.20
46302;PMS7003;32029;51.358;5.628;2023-06-24T02:59:42;4.20;3.40;2.20
46302;PMS7003;32029;51.358;5.628;2023-06-24T03:02:10;5.00;2.00;1.80
46302;PMS7003;32029;51.358;5.628;2023-06-24T03:04:38;2.67;2.67;2.00
46302;PMS7003;32029;51.358;5.628;2023-06-24T03:07:09;4.17;2.00;1.50
46302;PMS7003;32029;51.358;5.628;2023-06-24T03:09:37;5.00;2.33;2.00
46302;PMS7003;32029;51.358;5.628;2023-06-24T03:12:05;5.33;2.67;2.00
46302;PMS7003;32029;51.358;5.628;2023-06-24T03:14:32;2.00;2.00;2.00
46302;PMS7003;32029;51.358;5.628;2023-06-24T03:16:59;3.00;2.33;1.33
46302;PMS7003;32029;51.358;5.628;2023-06-24T03:19:25;4.00;2.00;1.33
46302;PMS7003;32029;51.358;5.628;2023-06-24T03:21:53;2.00;2.00;1.80
46302;PMS7003;32029;51.358;5.628;2023-06-24T03:24:21;3.00;1.80;1.40
46302;PMS7003;32029;51.358;5.628;2023-06-24T03:26:48;2.67;2.00;2.00
46302;PMS7003;32029;51.358;5.628;2023-06-24T03:29:16;3.00;3.00;2.00
46302;PMS7003;32029;51.358;5.628;2023-06-24T03:31:43;1.67;1.67;1.00
46302;PMS7003;32029;51.358;5.628;2023-06-24T03:34:12;4.80;4.00;3.00
46302;PMS7003;32029;51.358;5.628;2023-06-24T03:36:41;3.20;3.20;2.40
46302;PMS7003;32029;51.358;5.628;2023-06-24T03:39:08;3.00;2.00;2.00
46302;PMS7003;32029;51.358;5.628;2023-06-24T03:41:35;3.00;1.00;1.00
46302;PMS7003;32029;51.358;5.628;2023-06-24T03:44:02;2.67;2.67;1.67
46302;PMS7003;32029;51.358;5.628;2023-06-24T03:46:29;5.00;2.67;2.00
46302;PMS7003;32029;51.358;5.628;2023-06-24T03:49:00;3.00;2.00;2.00
46302;PMS7003;32029;51.358;5.628;2023-06-24T03:51:28;3.00;3.00;2.40
46302;PMS7003;32029;51.358;5.628;2023-06-24T03:53:56;2.40;2.40;1.80
46302;PMS7003;32029;51.358;5.628;2023-06-24T03:56:22;3.00;1.67;1.00
46302;PMS7003;32029;51.358;5.628;2023-06-24T03:58:49;3.33;3.00;2.00
46302;PMS7003;32029;51.358;5.628;2023-06-24T04:01:16;4.00;2.67;2.00
46302;PMS7003;32029;51.358;5.628;2023-06-24T04:03:46;3.80;3.80;2.40
46302;PMS7003;32029;51.358;5.628;2023-06-24T04:06:13;4.33;2.00;1.00
46302;PMS7003;32029;51.358;5.628;2023-06-24T04:08:41;4.40;3.00;2.00
46302;PMS7003;32029;51.358;5.628;2023-06-24T04:11:09;3.00;3.00;2.00
46302;PMS7003;32029;51.358;5.628;2023-06-24T04:13:36;2.33;1.33;1.33
46302;PMS7003;32029;51.358;5.628;2023-06-24T04:16:03;3.00;3.00;3.00
46302;PMS7003;32029;51.358;5.628;2023-06-24T04:18:29;3.00;3.00;2.00
46302;PMS7003;32029;51.358;5.628;2023-06-24T04:20:57;1.80;1.80;1.40
46302;PMS7003;32029;51.358;5.628;2023-06-24T04:23:24;3.00;1.67;1.00
46302;PMS7003;32029;51.358;5.628;2023-06-24T04:25:52;3.00;2.00;2.00
46302;PMS7003;32029;51.358;5.628;2023-06-24T04:28:18;3.00;3.00;2.00
46302;PMS7003;32029;51.358;5.628;2023-06-24T04:30:45;4.33;3.33;2.00
46302;PMS7003;32029;51.358;5.628;2023-06-24T04:33:13;4.80;2.40;1.80
46302;PMS7003;32029;51.358;5.628;2023-06-24T04:35:41;5.00;3.20;2.00
46302;PMS7003;32029;51.358;5.628;2023-06-24T04:38:07;4.33;3.33;3.00
46302;PMS7003;32029;51.358;5.628;2023-06-24T04:40:34;5.67;2.33;2.00
46302;PMS7003;32029;51.358;5.628;2023-06-24T04:43:02;1.80;1.00;1.00
46302;PMS7003;32029;51.358;5.628;2023-06-24T04:45:28;1.00;1.00;1.00
46302;PMS7003;32029;51.358;5.628;2023-06-24T04:47:57;4.00;2.00;1.80
46302;PMS7003;32029;51.358;5.628;2023-06-24T04:50:24;4.40;4.40;3.00
46302;PMS7003;32029;51.358;5.628;2023-06-24T04:52:51;1.33;1.00;1.00
46302;PMS7003;32029;51.358;5.628;2023-06-24T04:55:21;1.67;1.67;1.67
46302;PMS7003;32029;51.358;5.628;2023-06-24T04:57:49;3.40;1.40;1.20
46302;PMS7003;32029;51.358;5.628;2023-06-24T05:00:16;1.00;1.00;1.00
46302;PMS7003;32029;51.358;5.628;2023-06-24T05:02:44;0.00;0.00;0.00
46302;PMS7003;32029;51.358;5.628;2023-06-24T05:05:12;3.00;1.33;1.00
46302;PMS7003;32029;51.358;5.628;2023-06-24T05:07:38;1.00;1.00;1.00
46302;PMS7003;32029;51.358;5.628;2023-06-24T05:10:05;4.67;2.67;1.67
46302;PMS7003;32029;51.358;5.628;2023-06-24T05:12:32;3.00;3.00;2.67
46302;PMS7003;32029;51.358;5.628;2023-06-24T05:14:59;3.00;1.00;1.00
46302;PMS7003;32029;51.358;5.628;2023-06-24T05:17:28;3.33;3.00;3.00
46302;PMS7003;32029;51.358;5.628;2023-06-24T05:19:56;3.00;3.00;2.00
46302;PMS7003;32029;51.358;5.628;2023-06-24T05:22:24;4.00;4.00;3.00
46302;PMS7003;32029;51.358;5.628;2023-06-24T05:24:51;1.00;1.00;1.00
46302;PMS7003;32029;51.358;5.628;2023-06-24T05:27:19;4.20;1.80;1.00
46302;PMS7003;32029;51.358;5.628;2023-06-24T05:29:45;2.00;2.00;1.00
46302;PMS7003;32029;51.358;5.628;2023-06-24T05:32:12;6.33;3.00;2.33
46302;PMS7003;32029;51.358;5.628;2023-06-24T05:34:39;1.00;0.00;0.00
46302;PMS7003;32029;51.358;5.628;2023-06-24T05:37:05;1.33;1.33;1.33
46302;PMS7003;32029;51.358;5.628;2023-06-24T05:39:32;1.00;1.00;0.33
46302;PMS7003;32029;51.358;5.628;2023-06-24T05:41:59;5.00;2.00;1.00
46302;PMS7003;32029;51.358;5.628;2023-06-24T05:44:25;4.00;1.67;1.00
46302;PMS7003;32029;51.358;5.628;2023-06-24T05:46:52;2.00;2.00;1.00
46302;PMS7003;32029;51.358;5.628;2023-06-24T05:49:19;0.00;0.00;0.00
46302;PMS7003;32029;51.358;5.628;2023-06-24T05:51:45;1.00;1.00;0.00
46302;PMS7003;32029;51.358;5.628;2023-06-24T05:54:12;1.00;1.00;1.00
46302;PMS7003;32029;51.358;5.628;2023-06-24T05:56:40;2.00;1.00;1.00
46302;PMS7003;32029;51.358;5.628;2023-06-24T05:59:07;4.33;3.00;2.00
46302;PMS7003;32029;51.358;5.628;2023-06-24T06:01:33;2.00;2.00;1.00
46302;PMS7003;32029;51.358;5.628;2023-06-24T06:04:00;1.00;1.00;1.00
46302;PMS7003;32029;51.358;5.628;2023-06-24T06:06:27;1.00;1.00;1.00
46302;PMS7003;32029;51.358;5.628;2023-06-24T06:08:53;1.00;1.00;1.00
46302;PMS7003;32029;51.358;5.628;2023-06-24T06:11:34;1.00;0.40;0.00
46302;PMS7003;32029;51.358;5.628;2023-06-24T06:14:00;1.67;1.00;1.00
46302;PMS7003;32029;51.358;5.628;2023-06-24T06:16:27;0.00;0.00;0.00
46302;PMS7003;32029;51.358;5.628;2023-06-24T06:18:54;0.67;0.67;0.00
46302;PMS7003;32029;51.358;5.628;2023-06-24T06:21:21;4.00;1.33;1.00
46302;PMS7003;32029;51.358;5.628;2023-06-24T06:23:48;1.00;1.00;0.67
46302;PMS7003;32029;51.358;5.628;2023-06-24T06:26:14;2.00;1.00;0.00
46302;PMS7003;32029;51.358;5.628;2023-06-24T06:28:41;2.67;1.67;1.00
46302;PMS7003;32029;51.358;5.628;2023-06-24T06:31:09;3.20;1.80;1.80
46302;PMS7003;32029;51.358;5.628;2023-06-24T06:33:36;1.00;1.00;1.00
46302;PMS7003;32029;51.358;5.628;2023-06-24T06:36:03;0.00;0.00;0.00
46302;PMS7003;32029;51.358;5.628;2023-06-24T06:38:31;0.33;0.33;0.00
46302;PMS7003;32029;51.358;5.628;2023-06-24T06:40:59;0.00;0.00;0.00
46302;PMS7003;32029;51.358;5.628;2023-06-24T06:43:27;0.20;0.00;0.00
46302;PMS7003;32029;51.358;5.628;2023-06-24T06:45:53;2.67;0.00;0.00
46302;PMS7003;32029;51.358;5.628;2023-06-24T06:48:21;2.20;0.00;0.00
46302;PMS7003;32029;51.358;5.628;2023-06-24T06:50:48;0.00;0.00;0.00
46302;PMS7003;32029;51.358;5.628;2023-06-24T06:53:15;0.00;0.00;0.00
46302;PMS7003;32029;51.358;5.628;2023-06-24T06:55:42;0.00;0.00;0.00
46302;PMS7003;32029;51.358;5.628;2023-06-24T06:58:09;1.00;0.00;0.00
46302;PMS7003;32029;51.358;5.628;2023-06-24T07:00:35;0.00;0.00;0.00
46302;PMS7003;32029;51.358;5.628;2023-06-24T07:03:03;0.00;0.00;0.00
46302;PMS7003;32029;51.358;5.628;2023-06-24T07:05:30;0.00;0.00;0.00
46302;PMS7003;32029;51.358;5.628;2023-06-24T07:07:58;0.00;0.00;0.00
46302;PMS7003;32029;51.358;5.628;2023-06-24T07:10:25;0.00;0.00;0.00
46302;PMS7003;32029;51.358;5.628;2023-06-24T07:12:51;0.00;0.00;0.00
46302;PMS7003;32029;51.358;5.628;2023-06-24T07:15:24;0.33;0.00;0.00
46302;PMS7003;32029;51.358;5.628;2023-06-24T07:17:52;0.00;0.00;0.00
46302;PMS7003;32029;51.358;5.628;2023-06-24T07:20:21;0.00;0.00;0.00
46302;PMS7003;32029;51.358;5.628;2023-06-24T07:22:48;0.00;0.00;0.00
46302;PMS7003;32029;51.358;5.628;2023-06-24T07:25:15;0.00;0.00;0.00
46302;PMS7003;32029;51.358;5.628;2023-06-24T07:27:43;0.00;0.00;0.00
46302;PMS7003;32029;51.358;5.628;2023-06-24T07:30:09;0.67;0.00;0.00
46302;PMS7003;32029;51.358;5.628;2023-06-24T07:32:36;0.00;0.00;0.00
46302;PMS7003;32029;51.358;5.628;2023-06-24T07:35:04;0.00;0.00;0.00
46302;PMS7003;32029;51.358;5.628;2023-06-24T07:37:31;0.00;0.00;0.00
46302;PMS7003;32029;51.358;5.628;2023-06-24T07:39:59;0.00;0.00;0.00
46302;PMS7003;32029;51.358;5.628;2023-06-24T07:42:26;0.67;0.00;0.00
46302;PMS7003;32029;51.358;5.628;2023-06-24T07:44:52;0.00;0.00;0.00
46302;PMS7003;32029;51.358;5.628;2023-06-24T07:47:19;0.00;0.00;0.00
46302;PMS7003;32029;51.358;5.628;2023-06-24T07:49:47;0.00;0.00;0.00
46302;PMS7003;32029;51.358;5.628;2023-06-24T07:52:13;0.00;0.00;0.00
46302;PMS7003;32029;51.358;5.628;2023-06-24T07:54:40;0.00;0.00;0.00
46302;PMS7003;32029;51.358;5.628;2023-06-24T07:57:08;0.00;0.00;0.00
46302;PMS7003;32029;51.358;5.628;2023-06-24T07:59:35;0.00;0.00;0.00
46302;PMS7003;32029;51.358;5.628;2023-06-24T08:02:02;0.00;0.00;0.00
46302;PMS7003;32029;51.358;5.628;2023-06-24T08:04:28;0.00;0.00;0.00
46302;PMS7003;32029;51.358;5.628;2023-06-24T08:06:55;0.00;0.00;0.00
46302;PMS7003;32029;51.358;5.628;2023-06-24T08:09:22;0.00;0.00;0.00
46302;PMS7003;32029;51.358;5.628;2023-06-24T08:11:48;0.00;0.00;0.00
46302;PMS7003;32029;51.358;5.628;2023-06-24T08:14:16;0.00;0.00;0.00
46302;PMS7003;32029;51.358;5.628;2023-06-24T08:16:43;0.00;0.00;0.00
46302;PMS7003;32029;51.358;5.628;2023-06-24T08:19:10;0.00;0.00;0.00
46302;PMS7003;32029;51.358;5.628;2023-06-24T08:21:38;0.00;0.00;0.00
46302;PMS7003;32029;51.358;5.628;2023-06-24T08:24:06;0.00;0.00;0.00
46302;PMS7003;32029;51.358;5.628;2023-06-24T08:26:34;0.00;0.00;0.00
46302;PMS7003;32029;51.358;5.628;2023-06-24T08:29:01;0.00;0.00;0.00
46302;PMS7003;32029;51.358;5.628;2023-06-24T08:31:27;0.00;0.00;0.00
46302;PMS7003;32029;51.358;5.628;2023-06-24T08:33:54;0.00;0.00;0.00
46302;PMS7003;32029;51.358;5.628;2023-06-24T08:36:21;0.00;0.00;0.00
46302;PMS7003;32029;51.358;5.628;2023-06-24T08:38:49;0.00;0.00;0.00
46302;PMS7003;32029;51.358;5.628;2023-06-24T08:41:17;0.00;0.00;0.00
46302;PMS7003;32029;51.358;5.628;2023-06-24T08:43:44;0.00;0.00;0.00
46302;PMS7003;32029;51.358;5.628;2023-06-24T08:46:12;0.00;0.00;0.00
46302;PMS7003;32029;51.358;5.628;2023-06-24T08:48:42;0.00;0.00;0.00
46302;PMS7003;32029;51.358;5.628;2023-06-24T08:51:13;0.00;0.00;0.00
46302;PMS7003;32029;51.358;5.628;2023-06-24T08:53:45;0.00;0.00;0.00
46302;PMS7003;32029;51.358;5.628;2023-06-24T08:56:12;0.00;0.00;0.00
46302;PMS7003;32029;51.358;5.628;2023-06-24T08:58:41;0.00;0.00;0.00
46302;PMS7003;32029;51.358;5.628;2023-06-24T09:01:07;0.00;0.00;0.00
46302;PMS7003;32029;51.358;5.628;2023-06-24T09:03:36;0.00;0.00;0.00
46302;PMS7003;32029;51.358;5.628;2023-06-24T09:06:03;0.00;0.00;0.00
46302;PMS7003;32029;51.358;5.628;2023-06-24T09:08:31;0.00;0.00;0.00
46302;PMS7003;32029;51.358;5.628;2023-06-24T09:10:58;0.00;0.00;0.00
46302;PMS7003;32029;51.358;5.628;2023-06-24T09:13:27;0.00;0.00;0.00
46302;PMS7003;32029;51.358;5.628;2023-06-24T09:16:14;0.00;0.00;0.00
46302;PMS7003;32029;51.358;5.628;2023-06-24T09:18:47;0.00;0.00;0.00
46302;PMS7003;32029;51.358;5.628;2023-06-24T09:21:21;0.00;0.00;0.00
46302;PMS7003;32029;51.358;5.628;2023-06-24T09:23:58;0.00;0.00;0.00
46302;PMS7003;32029;51.358;5.628;2023-06-24T09:26:26;0.00;0.00;0.00
46302;PMS7003;32029;51.358;5.628;2023-06-24T09:28:53;0.00;0.00;0.00
46302;PMS7003;32029;51.358;5.628;2023-06-24T09:31:24;0.00;0.00;0.00
46302;PMS7003;32029;51.358;5.628;2023-06-24T09:33:51;0.00;0.00;0.00
46302;PMS7003;32029;51.358;5.628;2023-06-24T09:36:19;0.00;0.00;0.00
46302;PMS7003;32029;51.358;5.628;2023-06-24T09:38:46;0.00;0.00;0.00
46302;PMS7003;32029;51.358;5.628;2023-06-24T09:41:13;0.00;0.00;0.00
46302;PMS7003;32029;51.358;5.628;2023-06-24T09:43:42;0.00;0.00;0.00
46302;PMS7003;32029;51.358;5.628;2023-06-24T09:46:13;0.00;0.00;0.00
46302;PMS7003;32029;51.358;5.628;2023-06-24T09:48:42;0.00;0.00;0.00
46302;PMS7003;32029;51.358;5.628;2023-06-24T09:51:08;0.00;0.00;0.00
46302;PMS7003;32029;51.358;5.628;2023-06-24T09:53:38;0.00;0.00;0.00
46302;PMS7003;32029;51.358;5.628;2023-06-24T09:56:07;0.00;0.00;0.00
46302;PMS7003;32029;51.358;5.628;2023-06-24T09:58:35;0.00;0.00;0.00
46302;PMS7003;32029;51.358;5.628;2023-06-24T10:01:03;0.00;0.00;0.00
46302;PMS7003;32029;51.358;5.628;2023-06-24T10:03:34;0.00;0.00;0.00
46302;PMS7003;32029;51.358;5.628;2023-06-24T10:06:02;0.00;0.00;0.00
46302;PMS7003;32029;51.358;5.628;2023-06-24T10:08:30;0.00;0.00;0.00
46302;PMS7003;32029;51.358;5.628;2023-06-24T10:10:58;0.00;0.00;0.00
46302;PMS7003;32029;51.358;5.628;2023-06-24T10:13:26;0.00;0.00;0.00
46302;PMS7003;32029;51.358;5.628;2023-06-24T10:15:54;0.00;0.00;0.00
46302;PMS7003;32029;51.358;5.628;2023-06-24T10:18:35;0.00;0.00;0.00
46302;PMS7003;32029;51.358;5.628;2023-06-24T10:21:04;0.00;0.00;0.00
46302;PMS7003;32029;51.358;5.628;2023-06-24T10:23:50;0.00;0.00;0.00
46302;PMS7003;32029;51.358;5.628;2023-06-24T10:26:24;0.00;0.00;0.00
46302;PMS7003;32029;51.358;5.628;2023-06-24T10:29:07;0.00;0.00;0.00
46302;PMS7003;32029;51.358;5.628;2023-06-24T10:42:26;0.00;0.00;0.00
46302;PMS7003;32029;51.358;5.628;2023-06-24T10:44:58;0.00;0.00;0.00
46302;PMS7003;32029;51.358;5.628;2023-06-24T10:47:27;0.00;0.00;0.00
46302;PMS7003;32029;51.358;5.628;2023-06-24T10:49:55;0.00;0.00;0.00
46302;PMS7003;32029;51.358;5.628;2023-06-24T10:52:22;0.00;0.00;0.00
46302;PMS7003;32029;51.358;5.628;2023-06-24T10:54:50;0.00;0.00;0.00
46302;PMS7003;32029;51.358;5.628;2023-06-24T10:57:24;0.00;0.00;0.00
46302;PMS7003;32029;51.358;5.628;2023-06-24T10:59:53;0.00;0.00;0.00
46302;PMS7003;32029;51.358;5.628;2023-06-24T11:02:22;0.00;0.00;0.00
46302;PMS7003;32029;51.358;5.628;2023-06-24T11:04:55;0.00;0.00;0.00
46302;PMS7003;32029;51.358;5.628;2023-06-24T11:07:24;0.00;0.00;0.00
46302;PMS7003;32029;51.358;5.628;2023-06-24T11:12:32;0.00;0.00;0.00
46302;PMS7003;32029;51.358;5.628;2023-06-24T11:15:04;0.00;0.00;0.00
46302;PMS7003;32029;51.358;5.628;2023-06-24T11:17:33;0.00;0.00;0.00
46302;PMS7003;32029;51.358;5.628;2023-06-24T11:20:09;0.00;0.00;0.00
46302;PMS7003;32029;51.358;5.628;2023-06-24T11:22:39;0.00;0.00;0.00
46302;PMS7003;32029;51.358;5.628;2023-06-24T11:25:19;0.00;0.00;0.00
46302;PMS7003;32029;51.358;5.628;2023-06-24T11:27:51;0.00;0.00;0.00
46302;PMS7003;32029;51.358;5.628;2023-06-24T11:30:21;0.00;0.00;0.00
46302;PMS7003;32029;51.358;5.628;2023-06-24T11:32:47;0.00;0.00;0.00
46302;PMS7003;32029;51.358;5.628;2023-06-24T11:35:16;0.00;0.00;0.00
46302;PMS7003;32029;51.358;5.628;2023-06-24T11:37:45;0.00;0.00;0.00
46302;PMS7003;32029;51.358;5.628;2023-06-24T11:40:13;0.00;0.00;0.00
46302;PMS7003;32029;51.358;5.628;2023-06-24T11:42:43;0.00;0.00;0.00
46302;PMS7003;32029;51.358;5.628;2023-06-24T11:45:19;0.00;0.00;0.00
46302;PMS7003;32029;51.358;5.628;2023-06-24T11:47:47;0.00;0.00;0.00
46302;PMS7003;32029;51.358;5.628;2023-06-24T11:50:14;0.00;0.00;0.00
46302;PMS7003;32029;51.358;5.628;2023-06-24T11:52:42;0.00;0.00;0.00
46302;PMS7003;32029;51.358;5.628;2023-06-24T12:00:38;0.00;0.00;0.00
46302;PMS7003;32029;51.358;5.628;2023-06-24T12:03:12;0.00;0.00;0.00
46302;PMS7003;32029;51.358;5.628;2023-06-24T12:05:40;0.00;0.00;0.00
46302;PMS7003;32029;51.358;5.628;2023-06-24T12:08:12;0.00;0.00;0.00
46302;PMS7003;32029;51.358;5.628;2023-06-24T12:10:42;0.00;0.00;0.00
46302;PMS7003;32029;51.358;5.628;2023-06-24T12:13:10;0.00;0.00;0.00
46302;PMS7003;32029;51.358;5.628;2023-06-24T12:15:38;0.00;0.00;0.00
46302;PMS7003;32029;51.358;5.628;2023-06-24T12:18:04;0.00;0.00;0.00
46302;PMS7003;32029;51.358;5.628;2023-06-24T12:20:35;0.00;0.00;0.00
46302;PMS7003;32029;51.358;5.628;2023-06-24T12:23:03;0.00;0.00;0.00
46302;PMS7003;32029;51.358;5.628;2023-06-24T12:25:31;0.00;0.00;0.00
46302;PMS7003;32029;51.358;5.628;2023-06-24T12:27:59;0.00;0.00;0.00
46302;PMS7003;32029;51.358;5.628;2023-06-24T12:30:26;0.00;0.00;0.00
46302;PMS7003;32029;51.358;5.628;2023-06-24T12:32:54;0.00;0.00;0.00
46302;PMS7003;32029;51.358;5.628;2023-06-24T12:35:22;0.00;0.00;0.00
46302;PMS7003;32029;51.358;5.628;2023-06-24T12:37:52;0.00;0.00;0.00
46302;PMS7003;32029;51.358;5.628;2023-06-24T12:40:19;0.00;0.00;0.00
46302;PMS7003;32029;51.358;5.628;2023-06-24T12:42:47;0.00;0.00;0.00
46302;PMS7003;32029;51.358;5.628;2023-06-24T12:45:13;0.00;0.00;0.00
46302;PMS7003;32029;51.358;5.628;2023-06-24T12:47:41;0.00;0.00;0.00
46302;PMS7003;32029;51.358;5.628;2023-06-24T12:50:08;0.00;0.00;0.00
46302;PMS7003;32029;51.358;5.628;2023-06-24T12:52:36;0.00;0.00;0.00
46302;PMS7003;32029;51.358;5.628;2023-06-24T12:55:03;0.00;0.00;0.00
46302;PMS7003;32029;51.358;5.628;2023-06-24T12:57:31;0.00;0.00;0.00
46302;PMS7003;32029;51.358;5.628;2023-06-24T12:59:58;2.00;0.00;0.00
46302;PMS7003;32029;51.358;5.628;2023-06-24T13:02:25;0.00;0.00;0.00
46302;PMS7003;32029;51.358;5.628;2023-06-24T13:04:53;0.00;0.00;0.00
46302;PMS7003;32029;51.358;5.628;2023-06-24T13:07:21;0.00;0.00;0.00
46302;PMS7003;32029;51.358;5.628;2023-06-24T13:09:48;0.00;0.00;0.00
46302;PMS7003;32029;51.358;5.628;2023-06-24T13:12:15;0.00;0.00;0.00
46302;PMS7003;32029;51.358;5.628;2023-06-24T13:14:43;0.00;0.00;0.00
46302;PMS7003;32029;51.358;5.628;2023-06-24T13:17:11;0.00;0.00;0.00
46302;PMS7003;32029;51.358;5.628;2023-06-24T13:19:39;0.00;0.00;0.00
46302;PMS7003;32029;51.358;5.628;2023-06-24T13:22:06;0.00;0.00;0.00
46302;PMS7003;32029;51.358;5.628;2023-06-24T13:24:34;0.00;0.00;0.00
46302;PMS7003;32029;51.358;5.628;2023-06-24T13:27:03;0.00;0.00;0.00
46302;PMS7003;32029;51.358;5.628;2023-06-24T13:29:30;0.00;0.00;0.00
46302;PMS7003;32029;51.358;5.628;2023-06-24T13:31:59;0.00;0.00;0.00
46302;PMS7003;32029;51.358;5.628;2023-06-24T13:34:26;0.00;0.00;0.00
46302;PMS7003;32029;51.358;5.628;2023-06-24T13:36:54;0.00;0.00;0.00
46302;PMS7003;32029;51.358;5.628;2023-06-24T13:39:22;0.00;0.00;0.00
46302;PMS7003;32029;51.358;5.628;2023-06-24T13:41:50;0.00;0.00;0.00
46302;PMS7003;32029;51.358;5.628;2023-06-24T13:44:19;0.00;0.00;0.00
46302;PMS7003;32029;51.358;5.628;2023-06-24T13:46:47;0.40;0.00;0.00
46302;PMS7003;32029;51.358;5.628;2023-06-24T13:49:15;0.00;0.00;0.00
46302;PMS7003;32029;51.358;5.628;2023-06-24T13:51:43;0.00;0.00;0.00
46302;PMS7003;32029;51.358;5.628;2023-06-24T13:54:11;0.00;0.00;0.00
46302;PMS7003;32029;51.358;5.628;2023-06-24T13:56:38;0.00;0.00;0.00
46302;PMS7003;32029;51.358;5.628;2023-06-24T13:59:05;0.00;0.00;0.00
46302;PMS7003;32029;51.358;5.628;2023-06-24T14:01:32;0.00;0.00;0.00
46302;PMS7003;32029;51.358;5.628;2023-06-24T14:03:59;0.00;0.00;0.00
46302;PMS7003;32029;51.358;5.628;2023-06-24T14:06:25;0.00;0.00;0.00
46302;PMS7003;32029;51.358;5.628;2023-06-24T14:08:53;0.00;0.00;0.00
46302;PMS7003;32029;51.358;5.628;2023-06-24T14:11:20;0.00;0.00;0.00
46302;PMS7003;32029;51.358;5.628;2023-06-24T14:13:48;0.00;0.00;0.00
46302;PMS7003;32029;51.358;5.628;2023-06-24T14:16:15;0.00;0.00;0.00
46302;PMS7003;32029;51.358;5.628;2023-06-24T14:18:43;0.00;0.00;0.00
46302;PMS7003;32029;51.358;5.628;2023-06-24T14:21:11;0.00;0.00;0.00
46302;PMS7003;32029;51.358;5.628;2023-06-24T14:23:39;0.00;0.00;0.00
46302;PMS7003;32029;51.358;5.628;2023-06-24T14:26:06;0.00;0.00;0.00
46302;PMS7003;32029;51.358;5.628;2023-06-24T14:28:34;0.00;0.00;0.00
46302;PMS7003;32029;51.358;5.628;2023-06-24T14:31:01;0.00;0.00;0.00
46302;PMS7003;32029;51.358;5.628;2023-06-24T14:33:27;0.00;0.00;0.00
46302;PMS7003;32029;51.358;5.628;2023-06-24T14:35:55;0.00;0.00;0.00
46302;PMS7003;32029;51.358;5.628;2023-06-24T14:38:23;0.00;0.00;0.00
46302;PMS7003;32029;51.358;5.628;2023-06-24T14:40:51;0.00;0.00;0.00
46302;PMS7003;32029;51.358;5.628;2023-06-24T14:43:18;0.00;0.00;0.00
46302;PMS7003;32029;51.358;5.628;2023-06-24T14:45:46;0.00;0.00;0.00
46302;PMS7003;32029;51.358;5.628;2023-06-24T14:48:14;0.00;0.00;0.00
46302;PMS7003;32029;51.358;5.628;2023-06-24T14:50:42;0.00;0.00;0.00
46302;PMS7003;32029;51.358;5.628;2023-06-24T14:53:09;0.00;0.00;0.00
46302;PMS7003;32029;51.358;5.628;2023-06-24T14:55:37;0.00;0.00;0.00